Florence, Indiana
Current Conditions -  °F | °C
As of 4:52 AM on Saturday 25 Oct 2014 (Local Time) from KCVG Reporting Station
Overcast Overcast  
Wind Chill: 47°   Ceiling: 25000
Heat Index: 49°   Visibility: 8mi
Dew Point: 43°   Wind: 5mph
Humidity: 80%   Direction: 200°SSW
Pressure: 30.01"   Gusts: NA
Location:  38.78°N, 84.92°W
Report Text: KCVG 250852Z 20004KT 8SM SCT100 OVC250 09/06 A3001 RMK AO2 SLP159 T00940061 58005
Loading
Personal Weather Stations






























Interactive Weather Map New forecast layout! Learn more

10-Day Weather Forecast

Advertisements
Track Severe Weather on mobile